Time;durP1;ratioP1;P1;durP2;ratioP2;P2;SDS_P1;SDS_P2;PMS_P1;PMS_P2;Temp;Humidity;BMP_temperature;BMP_pressure;BME280_temperature;BME280_humidity;BME280_pressure;Samples;Min_cycle;Max_cycle;Signal;HPM_P1;HPM_P2
2022/01/09 00:00:24;;;;;;;9.00;4.43;;;-1.20;99.90;-1.60;98984.00;;;;5004100;27;88359;-66
2022/01/09 00:02:51;;;;;;;7.97;4.00;;;-1.20;99.90;-1.60;98979.00;;;;4995336;27;87907;-65
2022/01/09 00:05:17;;;;;;;8.40;3.93;;;-1.30;99.90;-1.60;98978.00;;;;5006307;27;88605;-65
2022/01/09 00:07:43;;;;;;;6.63;4.97;;;-1.20;99.90;-1.50;98987.00;;;;5013794;27;96835;-65
2022/01/09 00:10:10;;;;;;;4.20;3.00;;;-1.20;99.90;-1.60;98975.00;;;;5013580;27;88396;-65
2022/01/09 00:12:36;;;;;;;5.33;3.97;;;-0.40;99.90;-1.50;98973.00;;;;5013721;27;88582;-66
2022/01/09 00:15:04;;;;;;;8.07;4.73;;;-1.20;99.90;-1.50;98960.00;;;;5014676;27;88398;-65
2022/01/09 00:17:30;;;;;;;5.73;4.23;;;-1.20;99.90;-1.50;98946.00;;;;5005820;27;88010;-66
2022/01/09 00:19:56;;;;;;;5.90;3.80;;;-1.20;99.90;-1.50;98947.00;;;;4993694;27;117684;-65
2022/01/09 00:22:39;;;;;;;6.07;3.70;;;-1.20;99.90;-1.50;98945.00;;;;4993759;27;116251;-65
2022/01/09 00:25:06;;;;;;;4.77;3.57;;;-1.10;99.90;-1.50;98942.00;;;;4994453;28;87679;-65
2022/01/09 00:27:32;;;;;;;3.73;3.33;;;-1.10;99.90;-1.40;98945.00;;;;4996859;27;92962;-67
2022/01/09 00:29:58;;;;;;;5.43;4.53;;;-0.90;99.90;-1.40;98921.00;;;;5013301;27;91361;-66
2022/01/09 00:32:24;;;;;;;5.57;3.40;;;-1.10;99.90;-1.40;98934.00;;;;5011722;27;117843;-65
2022/01/09 00:34:49;;;;;;;7.50;3.27;;;-1.10;99.90;-1.40;98924.00;;;;5013119;27;110232;-66
2022/01/09 00:37:15;;;;;;;5.70;3.90;;;-1.00;99.90;-1.40;98918.00;;;;5006053;27;108905;-66
2022/01/09 00:39:41;;;;;;;7.63;3.73;;;-1.10;99.90;-1.40;98922.00;;;;4993565;27;118543;-66
2022/01/09 00:42:07;;;;;;;4.80;3.30;;;-1.10;99.90;-1.40;98918.00;;;;4993559;27;88261;-67
2022/01/09 00:44:32;;;;;;;5.17;3.13;;;-1.00;99.90;-1.40;98910.00;;;;4992773;27;110713;-67
2022/01/09 00:47:00;;;;;;;6.60;3.53;;;-1.10;99.90;-1.30;98919.00;;;;4976434;27;108132;-67
2022/01/09 00:49:27;;;;;;;5.23;4.07;;;-0.50;99.90;-1.30;98910.00;;;;5013219;27;87856;-66
2022/01/09 00:51:53;;;;;;;4.57;3.50;;;-1.00;99.90;-1.30;98900.00;;;;5014192;27;88081;-67
2022/01/09 00:54:19;;;;;;;6.27;3.73;;;-1.00;99.90;-1.30;98897.00;;;;5013305;27;88704;-67
2022/01/09 00:56:44;;;;;;;6.40;3.57;;;-1.00;99.90;-1.30;98897.00;;;;5000950;27;102294;-66
2022/01/09 00:59:10;;;;;;;4.53;2.93;;;-0.40;99.90;-1.30;98884.00;;;;4992873;28;117870;-67
2022/01/09 01:01:36;;;;;;;4.10;2.60;;;-1.00;99.90;-1.20;98891.00;;;;4993649;27;117343;-66
2022/01/09 01:04:01;;;;;;;3.77;3.10;;;-0.80;99.90;-1.20;98877.00;;;;4993773;27;87735;-66
2022/01/09 01:06:27;;;;;;;4.23;2.47;;;-0.90;99.90;-1.10;98878.00;;;;4993495;27;109244;-66
2022/01/09 01:08:53;;;;;;;3.17;2.37;;;-0.90;99.90;-1.10;98878.00;;;;4992930;28;98106;-67
2022/01/09 01:11:20;;;;;;;3.07;2.23;;;-0.80;99.90;-1.10;98878.00;;;;5005504;27;89133;-66
2022/01/09 01:13:46;;;;;;;6.23;2.33;;;-0.70;99.90;-1.10;98874.00;;;;5015917;27;88005;-66
2022/01/09 01:16:12;;;;;;;3.27;2.93;;;-0.80;99.90;-1.00;98877.00;;;;4997489;27;92505;-66
2022/01/09 01:18:42;;;;;;;2.00;1.83;;;-0.70;99.90;-1.00;98865.00;;;;4996296;28;88785;-66
2022/01/09 01:21:08;;;;;;;4.43;2.90;;;-0.70;99.90;-1.00;98862.00;;;;4997650;27;89894;-66
2022/01/09 01:23:34;;;;;;;4.63;2.57;;;0.10;99.90;-1.00;98858.00;;;;5011832;27;88878;-66
2022/01/09 01:26:01;;;;;;;4.80;2.73;;;-0.70;99.90;-0.90;98850.00;;;;5012895;27;87665;-66
2022/01/09 01:28:27;;;;;;;2.90;1.97;;;-0.80;99.90;-0.90;98849.00;;;;5009529;27;87942;-66
2022/01/09 01:30:54;;;;;;;5.57;2.33;;;-0.60;99.90;-0.80;98846.00;;;;5017591;27;88099;-67
2022/01/09 01:33:20;;;;;;;4.50;2.20;;;-0.60;99.90;-0.80;98839.00;;;;5016185;27;87750;-67
2022/01/09 01:35:45;;;;;;;1.87;1.77;;;0.30;99.90;-0.80;98832.00;;;;5016782;27;108969;-67
2022/01/09 01:38:11;;;;;;;4.13;2.33;;;-0.50;99.90;-0.80;98833.00;;;;5001317;27;118094;-67
2022/01/09 01:40:37;;;;;;;3.53;2.53;;;-0.50;99.90;-0.70;98828.00;;;;4996751;27;88837;-67
2022/01/09 01:43:03;;;;;;;3.07;2.37;;;-0.40;99.90;-0.80;98813.00;;;;4995357;27;111241;-67
2022/01/09 01:45:29;;;;;;;7.73;2.07;;;-0.40;99.90;-0.70;98814.00;;;;4996303;28;108621;-67
2022/01/09 01:47:54;;;;;;;3.87;1.93;;;0.00;99.90;-0.80;98818.00;;;;5007474;27;89122;-67
2022/01/09 01:50:20;;;;;;;2.00;1.80;;;-0.50;99.90;-0.70;98819.00;;;;5009550;27;101774;-67
2022/01/09 01:52:50;;;;;;;4.27;2.70;;;-0.40;99.90;-0.80;98809.00;;;;4996400;27;87832;-66
2022/01/09 01:55:17;;;;;;;6.40;2.70;;;-0.50;99.90;-0.80;98797.00;;;;4977724;28;87874;-66
2022/01/09 01:57:44;;;;;;;2.27;1.83;;;-0.50;99.90;-0.80;98795.00;;;;4996078;28;88760;-67
2022/01/09 02:00:15;;;;;;;7.57;1.90;;;-0.50;99.90;-0.80;98783.00;;;;4997330;28;87611;-66
2022/01/09 02:02:41;;;;;;;3.40;2.13;;;-0.50;99.90;-0.80;98775.00;;;;4997232;27;87761;-66
2022/01/09 02:05:08;;;;;;;4.57;2.63;;;-0.50;99.90;-0.80;98772.00;;;;4996270;28;97099;-66
2022/01/09 02:07:34;;;;;;;2.77;2.13;;;-0.50;99.90;-0.70;98767.00;;;;5003355;27;89427;-66
2022/01/09 02:10:00;;;;;;;3.67;2.53;;;-0.60;99.90;-0.80;98763.00;;;;5014347;27;96675;-67
2022/01/09 02:12:26;;;;;;;2.70;2.37;;;-0.40;99.90;-0.80;98768.00;;;;5015514;27;88228;-67
2022/01/09 02:14:51;;;;;;;2.43;2.23;;;-0.60;99.90;-0.80;98755.00;;;;5015683;27;87739;-67
2022/01/09 02:17:21;;;;;;;3.20;2.03;;;-0.40;99.90;-0.70;98759.00;;;;5014396;27;113906;-67
2022/01/09 02:19:55;;;;;;;1.37;1.27;;;-0.50;99.90;-0.80;98746.00;;;;4996422;28;87875;-67
2022/01/09 02:22:23;;;;;;;3.97;1.73;;;0.60;99.90;-0.70;98743.00;;;;4997112;27;87867;-66
2022/01/09 02:24:50;;;;;;;2.57;2.33;;;-0.40;99.90;-0.70;98734.00;;;;4996379;27;87073;-67
2022/01/09 02:27:17;;;;;;;2.30;1.47;;;-0.40;99.90;-0.70;98740.00;;;;4995181;28;87980;-67
2022/01/09 02:29:46;;;;;;;5.00;1.90;;;-0.20;99.90;-0.70;98741.00;;;;4996493;27;88075;-67
2022/01/09 02:32:15;;;;;;;3.67;2.17;;;-0.50;99.90;-0.70;98733.00;;;;4995237;27;89395;-67
2022/01/09 02:34:44;;;;;;;3.03;2.13;;;-0.40;99.90;-0.70;98736.00;;;;4996360;28;87821;-66
2022/01/09 02:37:10;;;;;;;1.83;1.67;;;-0.80;99.90;-0.70;98734.00;;;;4995895;27;102093;-66
2022/01/09 02:39:35;;;;;;;3.03;2.17;;;-0.40;99.90;-0.60;98722.00;;;;4994269;27;115364;-66
2022/01/09 02:42:01;;;;;;;5.13;2.07;;;0.40;99.90;-0.60;98738.00;;;;4995915;27;109827;-66
2022/01/09 02:44:27;;;;;;;2.93;1.87;;;-0.30;99.90;-0.50;98724.00;;;;4996803;27;98330;-66
2022/01/09 02:49:18;;;;;;;2.43;1.43;;;0.50;99.90;-0.50;98718.00;;;;5015120;27;105570;-65
2022/01/09 02:51:46;;;;;;;3.67;1.77;;;0.50;99.90;-0.40;98721.00;;;;5015502;27;87553;-67
2022/01/09 02:56:57;;;;;;;3.90;2.33;;;-0.20;99.90;-0.40;98712.00;;;;5012538;27;88701;-66
2022/01/09 02:59:22;;;;;;;2.77;1.87;;;-0.10;99.90;-0.40;98707.00;;;;5014699;27;109780;-66
2022/01/09 03:01:48;;;;;;;3.63;2.70;;;0.70;99.90;-0.30;98706.00;;;;5013083;27;110451;-66
2022/01/09 03:04:14;;;;;;;5.87;2.57;;;-0.10;99.90;-0.30;98705.00;;;;5014938;27;107647;-66
2022/01/09 03:06:40;;;;;;;6.07;1.87;;;0.30;99.90;-0.30;98709.00;;;;5013938;27;117502;-66
2022/01/09 03:09:07;;;;;;;4.13;1.90;;;0.10;99.90;-0.20;98707.00;;;;5015035;27;88492;-66
2022/01/09 03:11:33;;;;;;;2.97;2.23;;;0.00;99.90;-0.20;98709.00;;;;5014573;27;87666;-66
2022/01/09 03:13:59;;;;;;;5.20;2.00;;;0.10;99.90;-0.20;98695.00;;;;5010454;27;87204;-66
2022/01/09 03:16:24;;;;;;;1.93;1.73;;;1.10;99.90;-0.10;98693.00;;;;4993975;28;117600;-66
2022/01/09 03:18:50;;;;;;;2.73;2.00;;;0.10;99.90;-0.10;98695.00;;;;4994207;28;118203;-67
2022/01/09 03:21:19;;;;;;;3.07;1.43;;;0.30;99.90;-0.10;98703.00;;;;4999398;27;109167;-66
2022/01/09 03:23:46;;;;;;;3.50;2.13;;;0.20;99.90;0.00;98708.00;;;;5000558;27;88285;-67
2022/01/09 03:26:11;;;;;;;2.20;2.00;;;0.20;99.90;0.00;98710.00;;;;4994570;27;117780;-66
2022/01/09 03:28:37;;;;;;;4.50;1.50;;;0.20;99.90;0.00;98704.00;;;;5011820;27;117005;-65
2022/01/09 03:31:03;;;;;;;3.90;2.10;;;0.20;99.90;0.00;98702.00;;;;5015414;27;110926;-65
2022/01/09 03:33:28;;;;;;;2.37;1.90;;;0.30;99.90;0.00;98709.00;;;;5014418;27;108719;-65
2022/01/09 03:35:54;;;;;;;2.50;1.70;;;0.30;99.90;0.10;98698.00;;;;5014120;27;117507;-65
2022/01/09 03:38:20;;;;;;;1.20;1.10;;;0.50;99.90;0.10;98698.00;;;;5012774;27;116618;-66
2022/01/09 03:40:46;;;;;;;2.90;1.97;;;0.40;99.90;0.10;98698.00;;;;5014490;27;109655;-66
2022/01/09 03:43:11;;;;;;;3.27;2.00;;;1.20;99.90;0.20;98692.00;;;;5000698;27;87762;-66
2022/01/09 03:45:37;;;;;;;2.87;1.73;;;0.40;99.90;0.20;98680.00;;;;4993791;28;119097;-66
2022/01/09 03:48:03;;;;;;;2.43;2.00;;;0.50;99.90;0.30;98679.00;;;;4996056;27;90561;-65
2022/01/09 03:50:29;;;;;;;3.03;2.03;;;0.50;99.90;0.30;98669.00;;;;4994560;28;95521;-66
2022/01/09 03:52:54;;;;;;;5.33;2.27;;;0.60;99.90;0.30;98663.00;;;;4995430;27;109134;-66
2022/01/09 03:55:22;;;;;;;2.33;1.83;;;1.40;99.90;0.30;98663.00;;;;4995105;28;88609;-66
2022/01/09 03:57:49;;;;;;;1.90;1.70;;;0.50;99.90;0.30;98652.00;;;;4994328;27;87977;-65
2022/01/09 04:00:22;;;;;;;7.13;1.80;;;-0.10;99.90;0.40;98650.00;;;;4996033;28;87980;-66
2022/01/09 04:02:49;;;;;;;3.10;1.63;;;1.80;99.90;0.40;98659.00;;;;4995300;27;87465;-66
2022/01/09 04:05:15;;;;;;;2.97;2.00;;;0.70;99.90;0.40;98640.00;;;;4994844;27;89192;-65
2022/01/09 04:07:41;;;;;;;7.80;2.67;;;0.60;99.90;0.40;98636.00;;;;4994903;27;88188;-65
2022/01/09 04:10:07;;;;;;;3.37;2.17;;;0.70;99.90;0.50;98638.00;;;;4998176;27;104313;-65
2022/01/09 04:12:36;;;;;;;3.33;2.10;;;0.70;99.90;0.50;98641.00;;;;4999375;27;88302;-66
2022/01/09 04:15:06;;;;;;;1.53;1.43;;;0.80;99.90;0.50;98641.00;;;;4994778;28;88907;-65
2022/01/09 04:17:50;;;;;;;3.83;1.83;;;1.40;99.90;0.50;98646.00;;;;5002453;27;88721;-65
2022/01/09 04:20:15;;;;;;;3.43;1.83;;;0.60;99.90;0.50;98636.00;;;;5015167;27;87810;-66
2022/01/09 04:22:41;;;;;;;3.03;1.80;;;0.80;99.90;0.50;98635.00;;;;5013859;27;87962;-65
2022/01/09 04:25:08;;;;;;;3.53;2.07;;;1.20;99.90;0.50;98636.00;;;;5013570;27;117489;-65
2022/01/09 04:27:35;;;;;;;2.33;1.60;;;0.80;99.90;0.50;98630.00;;;;5013806;27;88950;-65
2022/01/09 04:30:01;;;;;;;3.97;1.67;;;1.10;99.90;0.50;98629.00;;;;5014566;27;87968;-65
2022/01/09 04:32:27;;;;;;;4.20;1.57;;;0.80;99.90;0.50;98640.00;;;;5012798;27;88169;-65
2022/01/09 04:34:53;;;;;;;2.00;1.40;;;0.80;99.90;0.50;98639.00;;;;4995306;27;89046;-66
2022/01/09 04:37:18;;;;;;;3.33;2.33;;;0.80;99.90;0.50;98632.00;;;;5013743;27;88668;-64
2022/01/09 04:39:47;;;;;;;1.90;1.57;;;0.80;99.90;0.50;98622.00;;;;4996764;27;111734;-64
2022/01/09 04:42:13;;;;;;;2.00;1.67;;;0.80;99.90;0.50;98620.00;;;;4993923;27;88031;-65
2022/01/09 04:44:39;;;;;;;2.17;1.43;;;0.70;99.90;0.50;98614.00;;;;4994451;27;94204;-65
2022/01/09 04:47:09;;;;;;;2.10;1.77;;;0.80;99.90;0.60;98607.00;;;;4994615;27;117853;-66
2022/01/09 04:49:39;;;;;;;2.60;2.37;;;0.90;99.90;0.60;98622.00;;;;5009547;27;87937;-65
2022/01/09 04:52:11;;;;;;;2.60;2.17;;;2.60;99.90;0.60;98613.00;;;;5017697;27;87192;-66
2022/01/09 04:54:36;;;;;;;3.97;2.57;;;0.90;99.90;0.60;98611.00;;;;5019352;27;87834;-66
2022/01/09 04:57:02;;;;;;;3.27;2.10;;;0.80;99.90;0.60;98623.00;;;;5015600;27;118216;-66
2022/01/09 04:59:29;;;;;;;7.97;2.60;;;1.10;99.90;0.70;98613.00;;;;5017686;27;88486;-65
2022/01/09 05:01:55;;;;;;;4.17;1.70;;;1.90;99.90;0.70;98609.00;;;;5016863;27;108304;-66
2022/01/09 05:04:20;;;;;;;2.97;1.80;;;0.90;99.90;0.70;98614.00;;;;5008642;27;107747;-66
2022/01/09 05:06:46;;;;;;;4.73;1.97;;;1.00;99.90;0.70;98620.00;;;;5008379;27;111140;-66
2022/01/09 05:09:12;;;;;;;1.57;1.43;;;1.60;99.90;0.70;98613.00;;;;4996683;27;110586;-65
2022/01/09 05:11:38;;;;;;;3.57;2.00;;;2.00;99.90;0.70;98611.00;;;;4986423;28;88785;-66
2022/01/09 05:14:04;;;;;;;3.10;2.40;;;1.00;99.90;0.70;98612.00;;;;5012659;27;88802;-65
2022/01/09 05:16:31;;;;;;;2.40;1.80;;;1.00;99.90;0.70;98622.00;;;;5018079;27;87824;-65
2022/01/09 05:19:05;;;;;;;3.00;1.47;;;1.30;99.90;0.70;98611.00;;;;5017636;27;87912;-65
2022/01/09 05:21:31;;;;;;;2.27;1.97;;;1.20;99.90;0.70;98628.00;;;;5017716;27;87747;-65
2022/01/09 05:23:57;;;;;;;3.47;2.00;;;1.00;99.90;0.70;98620.00;;;;5016877;27;89838;-65
2022/01/09 05:26:23;;;;;;;2.50;1.87;;;0.80;99.90;0.60;98621.00;;;;5017072;27;94408;-64
2022/01/09 05:28:49;;;;;;;3.70;2.13;;;1.70;99.90;0.60;98620.00;;;;4997234;27;100654;-64
2022/01/09 05:31:14;;;;;;;3.37;1.83;;;0.80;99.90;0.50;98609.00;;;;4997279;28;108508;-65
2022/01/09 05:33:40;;;;;;;2.37;2.13;;;1.50;99.90;0.50;98598.00;;;;5012878;27;118107;-64
2022/01/09 05:36:06;;;;;;;7.20;2.10;;;0.80;99.90;0.50;98600.00;;;;4997895;27;88706;-65
2022/01/09 05:38:33;;;;;;;5.00;2.53;;;1.30;99.90;0.40;98595.00;;;;4978222;28;87665;-65
2022/01/09 05:40:59;;;;;;;4.13;2.63;;;1.70;99.90;0.50;98589.00;;;;4997467;28;108677;-64
2022/01/09 05:43:25;;;;;;;4.07;2.40;;;0.70;99.90;0.50;98588.00;;;;4997446;27;88086;-64
2022/01/09 05:45:51;;;;;;;2.63;1.87;;;1.10;99.90;0.40;98592.00;;;;4997558;28;88031;-66
2022/01/09 05:48:17;;;;;;;4.30;2.30;;;1.40;99.90;0.50;98587.00;;;;4996628;27;106732;-66
2022/01/09 05:50:45;;;;;;;3.17;2.13;;;0.80;99.90;0.50;98591.00;;;;4998828;27;87712;-66
2022/01/09 05:53:11;;;;;;;3.67;2.30;;;0.80;99.90;0.50;98589.00;;;;4997164;27;88032;-65
2022/01/09 05:55:37;;;;;;;5.67;2.60;;;1.80;99.90;0.60;98593.00;;;;4996375;28;117591;-65
2022/01/09 05:58:02;;;;;;;3.27;2.13;;;1.40;99.90;0.60;98598.00;;;;4996801;27;87672;-65
2022/01/09 06:00:28;;;;;;;5.37;2.87;;;1.40;99.90;0.70;98591.00;;;;4996507;28;107898;-66
2022/01/09 06:02:54;;;;;;;3.30;2.57;;;0.90;99.90;0.70;98578.00;;;;5003632;27;115727;-64
2022/01/09 06:05:20;;;;;;;3.53;2.30;;;2.00;99.90;0.70;98579.00;;;;5016844;27;89287;-67
2022/01/09 06:07:45;;;;;;;3.70;2.20;;;1.10;99.90;0.70;98586.00;;;;5005192;27;95734;-65
2022/01/09 06:10:12;;;;;;;4.43;2.43;;;1.10;99.90;0.80;98579.00;;;;4996048;27;109057;-64
2022/01/09 06:12:38;;;;;;;3.03;2.37;;;1.00;99.90;0.80;98575.00;;;;4995662;27;89197;-66
2022/01/09 06:15:05;;;;;;;2.07;1.53;;;1.10;99.90;0.80;98583.00;;;;4995678;28;117549;-66
2022/01/09 06:17:39;;;;;;;2.97;2.07;;;1.10;99.90;0.80;98587.00;;;;4996314;27;95629;-67
2022/01/09 06:20:07;;;;;;;2.33;1.83;;;1.30;99.90;0.90;98569.00;;;;4995953;28;97719;-66
2022/01/09 06:22:33;;;;;;;4.07;1.90;;;1.20;99.90;0.90;98589.00;;;;4996084;27;89090;-66
2022/01/09 06:24:58;;;;;;;3.47;2.20;;;2.10;99.90;1.00;98577.00;;;;4979045;28;87884;-66
2022/01/09 06:27:24;;;;;;;2.73;1.50;;;1.90;99.90;1.00;98577.00;;;;4999248;27;87832;-66
2022/01/09 06:29:50;;;;;;;3.70;1.57;;;1.20;99.90;1.10;98575.00;;;;5017112;27;86830;-65
2022/01/09 06:32:15;;;;;;;3.10;1.87;;;1.30;99.90;1.10;98580.00;;;;5009524;27;117231;-65
2022/01/09 06:34:41;;;;;;;2.47;1.90;;;1.50;99.90;1.10;98587.00;;;;5010487;27;116835;-66
2022/01/09 06:37:08;;;;;;;4.40;2.03;;;1.30;99.90;1.10;98581.00;;;;4995067;28;104467;-65
2022/01/09 06:39:34;;;;;;;4.90;2.07;;;2.20;99.90;1.10;98576.00;;;;4996628;28;87948;-66
2022/01/09 06:41:59;;;;;;;2.03;1.43;;;2.30;99.90;1.20;98572.00;;;;5008370;27;117209;-66
2022/01/09 06:44:25;;;;;;;2.00;1.60;;;1.40;99.90;1.20;98579.00;;;;5026048;27;118513;-66
2022/01/09 06:46:51;;;;;;;2.53;1.47;;;1.50;99.90;1.20;98579.00;;;;5021728;27;109379;-66
2022/01/09 06:49:17;;;;;;;5.77;1.77;;;1.90;99.90;1.30;98580.00;;;;4996637;27;108421;-67
2022/01/09 06:51:42;;;;;;;2.63;1.67;;;2.20;99.90;1.30;98583.00;;;;4978906;27;87784;-66
2022/01/09 06:54:08;;;;;;;2.87;2.03;;;1.50;99.90;1.30;98589.00;;;;5015253;27;118089;-66
2022/01/09 06:56:34;;;;;;;4.90;1.90;;;1.50;99.90;1.30;98588.00;;;;5014602;27;111451;-65
2022/01/09 06:58:59;;;;;;;2.80;1.53;;;1.50;99.90;1.40;98585.00;;;;5003344;27;95658;-65
2022/01/09 07:01:25;;;;;;;2.60;2.07;;;1.60;99.90;1.40;98580.00;;;;5015200;27;118387;-66
2022/01/09 07:03:51;;;;;;;3.33;1.97;;;2.20;99.90;1.40;98581.00;;;;5014142;27;118417;-65
2022/01/09 07:06:17;;;;;;;3.10;1.97;;;1.60;99.90;1.40;98589.00;;;;5016067;27;87950;-65
2022/01/09 07:08:43;;;;;;;4.10;2.67;;;1.60;99.90;1.40;98587.00;;;;5016160;27;87934;-68
2022/01/09 07:11:09;;;;;;;4.37;2.33;;;1.70;99.90;1.50;98582.00;;;;5013163;27;88166;-66
2022/01/09 07:13:35;;;;;;;2.40;2.10;;;1.70;99.90;1.50;98584.00;;;;5006113;27;92871;-66
2022/01/09 07:16:00;;;;;;;2.87;2.50;;;1.90;99.90;1.50;98586.00;;;;5003394;27;89696;-66
2022/01/09 07:18:26;;;;;;;5.97;2.07;;;2.00;99.90;1.50;98592.00;;;;5008159;27;100692;-66
2022/01/09 07:20:52;;;;;;;2.97;2.43;;;2.20;99.90;1.50;98585.00;;;;5010932;27;116843;-66
2022/01/09 07:23:18;;;;;;;7.43;2.90;;;1.80;99.90;1.50;98585.00;;;;5010305;27;117450;-66
2022/01/09 07:25:44;;;;;;;2.17;1.83;;;2.60;99.90;1.50;98587.00;;;;5011510;27;111438;-66
2022/01/09 07:28:10;;;;;;;3.63;2.17;;;1.70;99.90;1.50;98590.00;;;;5011526;27;87834;-67
2022/01/09 07:30:36;;;;;;;1.73;1.50;;;1.70;99.90;1.50;98595.00;;;;5011415;27;95602;-66
2022/01/09 07:33:04;;;;;;;4.90;2.30;;;1.70;99.90;1.50;98598.00;;;;5010834;27;88388;-66
2022/01/09 07:35:30;;;;;;;1.70;1.53;;;1.70;99.90;1.50;98598.00;;;;5008926;27;87948;-66
2022/01/09 07:37:56;;;;;;;2.97;1.97;;;1.70;99.90;1.50;98592.00;;;;5002789;27;87812;-66
2022/01/09 07:40:22;;;;;;;3.17;2.13;;;2.20;99.90;1.50;98583.00;;;;4993035;27;110684;-66
2022/01/09 07:42:48;;;;;;;3.03;2.13;;;1.80;99.90;1.50;98588.00;;;;5009387;27;90583;-65
2022/01/09 07:45:19;;;;;;;3.10;2.40;;;1.70;99.90;1.50;98591.00;;;;5010153;27;89946;-68
2022/01/09 07:47:45;;;;;;;3.70;2.23;;;2.00;99.90;1.50;98593.00;;;;5003629;27;88082;-67
2022/01/09 07:50:11;;;;;;;3.87;1.93;;;2.10;99.90;1.50;98591.00;;;;5000297;27;118374;-66
2022/01/09 07:52:38;;;;;;;3.77;2.00;;;1.70;99.90;1.50;98597.00;;;;5008010;27;88618;-67
2022/01/09 07:55:06;;;;;;;2.43;2.13;;;1.10;99.90;1.50;98604.00;;;;5012005;27;87957;-67
2022/01/09 07:57:32;;;;;;;3.70;2.03;;;1.70;99.90;1.50;98590.00;;;;5005061;27;88924;-67
2022/01/09 07:59:58;;;;;;;2.07;1.87;;;1.70;99.90;1.50;98598.00;;;;4992198;27;87884;-67
2022/01/09 08:02:24;;;;;;;3.53;2.00;;;2.00;99.90;1.60;98591.00;;;;5006285;27;87778;-67
2022/01/09 08:04:50;;;;;;;5.13;3.00;;;2.30;99.90;1.60;98588.00;;;;5010709;27;110705;-68
2022/01/09 08:07:16;;;;;;;6.63;3.00;;;2.60;99.90;1.60;98600.00;;;;5010452;27;108463;-68
2022/01/09 08:09:44;;;;;;;2.33;1.80;;;1.80;99.90;1.50;98591.00;;;;5011688;27;93441;-67
2022/01/09 08:12:10;;;;;;;3.50;2.57;;;2.60;99.90;1.60;98600.00;;;;5004368;27;88727;-68
2022/01/09 08:14:38;;;;;;;4.93;2.53;;;1.80;99.90;1.60;98595.00;;;;4993833;27;88967;-67
2022/01/09 08:17:04;;;;;;;3.27;2.20;;;1.90;99.90;1.60;98605.00;;;;5009022;27;87566;-68
2022/01/09 08:19:31;;;;;;;4.70;2.13;;;1.90;99.90;1.60;98606.00;;;;5009763;27;105632;-69
2022/01/09 08:21:58;;;;;;;3.33;2.03;;;1.90;99.90;1.70;98590.00;;;;5012880;27;88783;-67
2022/01/09 08:24:24;;;;;;;3.60;1.70;;;1.90;99.90;1.70;98598.00;;;;5015744;27;93348;-67
2022/01/09 08:26:50;;;;;;;3.20;2.10;;;2.60;99.90;1.70;98602.00;;;;5015853;27;99471;-68
2022/01/09 08:29:16;;;;;;;2.77;1.93;;;2.00;99.90;1.70;98594.00;;;;5013253;27;88940;-69
2022/01/09 08:31:42;;;;;;;3.67;2.17;;;2.00;99.90;1.80;98598.00;;;;4997554;27;87302;-68
2022/01/09 08:34:09;;;;;;;5.60;2.43;;;2.20;99.90;1.80;98601.00;;;;4989982;27;89474;-68
2022/01/09 08:36:35;;;;;;;3.07;2.13;;;2.80;99.90;1.80;98599.00;;;;5013730;27;88932;-67
2022/01/09 08:39:03;;;;;;;4.13;2.23;;;2.50;99.90;1.80;98610.00;;;;5008283;27;88799;-69
2022/01/09 08:41:29;;;;;;;3.27;2.10;;;0.50;99.90;1.80;98603.00;;;;5013286;27;89695;-67
2022/01/09 08:43:55;;;;;;;1.50;1.40;;;2.10;99.90;1.90;98618.00;;;;5008591;27;102317;-67
2022/01/09 08:46:20;;;;;;;3.80;2.37;;;2.10;99.90;1.90;98608.00;;;;5006022;27;108859;-67
2022/01/09 08:48:46;;;;;;;2.10;1.47;;;2.70;99.90;1.90;98609.00;;;;5016339;27;117784;-67
2022/01/09 08:51:12;;;;;;;2.13;1.90;;;2.10;99.90;1.90;98606.00;;;;5013429;27;88618;-68
2022/01/09 08:53:37;;;;;;;3.67;1.70;;;2.70;99.90;2.00;98608.00;;;;5011831;27;110560;-70
2022/01/09 08:56:04;;;;;;;6.33;1.50;;;2.30;99.90;2.00;98599.00;;;;5010070;27;108820;-68
2022/01/09 08:58:31;;;;;;;4.03;1.70;;;2.20;99.90;2.00;98604.00;;;;4978669;27;101576;-68
2022/01/09 09:00:56;;;;;;;2.67;1.50;;;2.20;99.90;2.10;98611.00;;;;5017896;27;88038;-69
2022/01/09 09:03:25;;;;;;;2.23;1.37;;;2.20;99.90;2.10;98619.00;;;;4990994;27;97402;-70
2022/01/09 09:05:51;;;;;;;3.37;2.07;;;2.30;99.90;2.10;98609.00;;;;5016340;27;108922;-69
2022/01/09 09:08:17;;;;;;;1.33;1.23;;;3.00;99.90;2.10;98605.00;;;;5017189;27;93696;-68
2022/01/09 09:10:43;;;;;;;1.53;1.30;;;2.40;99.90;2.20;98602.00;;;;5018228;27;87870;-68
2022/01/09 09:13:09;;;;;;;2.20;1.63;;;2.30;99.90;2.20;98607.00;;;;5008719;27;88107;-70
2022/01/09 09:15:36;;;;;;;2.80;1.97;;;2.40;99.90;2.30;98611.00;;;;5014114;27;104151;-68
2022/01/09 09:18:02;;;;;;;3.23;1.87;;;2.50;99.90;2.40;98613.00;;;;4997046;27;117413;-69
2022/01/09 09:20:28;;;;;;;1.87;1.30;;;2.70;99.90;2.40;98613.00;;;;5015958;27;118483;-69
2022/01/09 09:22:53;;;;;;;2.93;1.97;;;2.60;99.90;2.50;98612.00;;;;5011223;27;88732;-69
2022/01/09 09:25:19;;;;;;;4.13;2.07;;;2.60;99.90;2.50;98616.00;;;;5004172;27;99455;-68
2022/01/09 09:27:46;;;;;;;3.00;1.80;;;2.60;99.90;2.50;98613.00;;;;5013159;27;89053;-69
2022/01/09 09:30:14;;;;;;;1.57;1.47;;;2.70;99.90;2.50;98613.00;;;;5014029;27;89325;-70
2022/01/09 09:32:41;;;;;;;1.50;1.27;;;2.70;99.90;2.60;98615.00;;;;5015638;27;87951;-69
2022/01/09 09:35:08;;;;;;;2.83;1.50;;;2.80;99.90;2.60;98613.00;;;;4970114;27;88303;-69
2022/01/09 09:37:34;;;;;;;3.50;1.80;;;2.80;99.90;2.60;98612.00;;;;5012231;27;101237;-68
2022/01/09 09:40:00;;;;;;;1.50;1.40;;;2.80;99.90;2.70;98626.00;;;;5010222;27;115478;-69
2022/01/09 09:42:26;;;;;;;1.67;1.50;;;2.80;99.90;2.70;98618.00;;;;5012340;27;87928;-69
2022/01/09 09:44:53;;;;;;;2.40;1.73;;;2.90;99.90;2.70;98617.00;;;;5016149;27;96422;-69
2022/01/09 09:47:21;;;;;;;1.83;1.60;;;2.90;99.90;2.80;98615.00;;;;5013583;27;88412;-69
2022/01/09 09:49:48;;;;;;;1.90;1.47;;;2.90;99.90;2.80;98621.00;;;;5013369;27;96933;-70
2022/01/09 09:52:18;;;;;;;2.03;1.67;;;3.00;99.90;2.90;98628.00;;;;4975803;27;89115;-69
2022/01/09 09:54:46;;;;;;;2.37;1.60;;;3.00;99.90;2.90;98622.00;;;;5010947;27;87675;-68
2022/01/09 09:57:11;;;;;;;4.03;2.27;;;3.10;99.90;3.00;98621.00;;;;4994359;27;88421;-69
2022/01/09 09:59:39;;;;;;;3.00;2.10;;;3.10;99.90;3.00;98627.00;;;;5007232;27;88026;-71
2022/01/09 10:02:10;;;;;;;3.03;1.57;;;3.20;99.90;3.10;98615.00;;;;5013230;27;87734;-70
2022/01/09 10:04:35;;;;;;;4.30;2.50;;;3.20;99.90;3.20;98624.00;;;;4992848;27;87976;-70
2022/01/09 10:07:01;;;;;;;3.53;2.13;;;3.40;99.90;3.30;98622.00;;;;4992941;27;116549;-68
2022/01/09 10:09:27;;;;;;;4.30;1.70;;;3.50;99.90;3.40;98615.00;;;;5004736;27;116781;-69
2022/01/09 10:11:56;;;;;;;1.53;1.37;;;3.60;99.90;3.50;98623.00;;;;5011311;27;109007;-69
2022/01/09 10:14:27;;;;;;;2.53;2.33;;;3.70;99.90;3.60;98617.00;;;;4994044;27;87826;-69
2022/01/09 10:17:19;;;;;;;3.83;2.33;;;3.80;99.90;3.70;98621.00;;;;5013049;27;90073;-69
2022/01/09 10:19:58;;;;;;;2.83;1.67;;;3.80;99.90;3.70;98627.00;;;;5013354;27;89008;-68
2022/01/09 10:22:40;;;;;;;4.13;1.80;;;3.90;99.90;3.70;98627.00;;;;4992593;27;87834;-69
2022/01/09 10:25:32;;;;;;;2.10;1.90;;;3.90;99.90;3.60;98633.00;;;;5013596;27;87929;-69
2022/01/09 10:28:14;;;;;;;1.93;1.60;;;3.90;99.90;3.60;98636.00;;;;4991892;27;88046;-69
2022/01/09 10:30:47;;;;;;;3.80;2.23;;;3.80;99.90;3.60;98626.00;;;;4987062;27;87500;-68
2022/01/09 10:33:16;;;;;;;4.20;2.13;;;3.80;99.90;3.60;98624.00;;;;5001583;27;95180;-71
2022/01/09 10:35:45;;;;;;;3.47;1.97;;;3.70;99.90;3.60;98623.00;;;;5006716;27;86929;-69
2022/01/09 10:38:19;;;;;;;4.83;1.90;;;3.70;99.90;3.50;98630.00;;;;5008900;27;87980;-70
2022/01/09 10:40:54;;;;;;;2.40;1.37;;;3.70;99.90;3.60;98630.00;;;;5011256;27;88859;-70
2022/01/09 10:43:41;;;;;;;3.80;2.17;;;3.60;99.90;3.70;98628.00;;;;4981134;27;88825;-69
2022/01/09 10:46:08;;;;;;;3.73;1.73;;;3.80;99.90;3.90;98630.00;;;;5011529;27;87698;-70
2022/01/09 10:48:43;;;;;;;1.70;1.60;;;4.00;99.90;4.10;98634.00;;;;5004911;27;88882;-70
2022/01/09 10:51:13;;;;;;;3.23;2.13;;;4.20;99.90;4.30;98623.00;;;;4982904;27;87909;-70
2022/01/09 10:53:43;;;;;;;2.83;1.53;;;4.40;99.90;4.50;98640.00;;;;5007178;27;87797;-68
2022/01/09 10:56:24;;;;;;;1.70;1.60;;;4.60;99.90;4.60;98635.00;;;;4993665;27;88054;-70
2022/01/09 10:58:57;;;;;;;2.77;1.83;;;4.70;99.90;4.70;98648.00;;;;4992236;27;87687;-69
2022/01/09 11:01:27;;;;;;;4.33;2.43;;;4.80;99.90;4.90;98647.00;;;;4992335;27;87712;-70
2022/01/09 11:04:08;;;;;;;3.07;1.87;;;4.90;99.90;4.90;98652.00;;;;5011472;27;96754;-72
2022/01/09 11:06:38;;;;;;;2.23;1.70;;;5.00;99.90;4.80;98651.00;;;;4995395;27;87768;-70